Time;durP1;ratioP1;P1;durP2;ratioP2;P2;SDS_P1;SDS_P2;PMS_P1;PMS_P2;Temp;Humidity;BMP_temperature;BMP_pressure;BME280_temperature;BME280_humidity;BME280_pressure;Samples;Min_cycle;Max_cycle;Signal;HPM_P1;HPM_P2
2021/12/08 00:00:46;;;;;;;;;;;6.90;99.90;;;;;;4907761;29;19915;-69
2021/12/08 00:03:13;;;;;;;;;;;7.00;99.90;;;;;;4908686;29;19934;-69
2021/12/08 00:05:41;;;;;;;;;;;7.00;99.90;;;;;;4907642;29;20347;-70
2021/12/08 00:08:07;;;;;;;;;;;7.00;99.90;;;;;;4910876;29;19911;-70
2021/12/08 00:13:08;;;;;;;;;;;6.90;99.90;;;;;;4913438;29;19919;-69
2021/12/08 00:15:53;;;;;;;;;;;6.90;99.90;;;;;;4909248;29;19911;-70
2021/12/08 00:18:26;;;;;;;;;;;6.90;99.90;;;;;;4928652;29;20326;-70
2021/12/08 00:20:53;;;;;;;;;;;6.90;99.90;;;;;;4909666;29;19910;-70
2021/12/08 00:23:19;;;;;;;;;;;6.90;99.90;;;;;;4910618;29;19915;-70
2021/12/08 00:25:45;;;;;;;;;;;6.90;99.90;;;;;;4908284;29;19950;-70
2021/12/08 00:28:11;;;;;;;;;;;6.90;99.90;;;;;;4914126;29;19970;-69
2021/12/08 00:30:37;;;;;;;;;;;6.90;99.90;;;;;;4909831;29;19924;-70
2021/12/08 00:33:04;;;;;;;;;;;6.90;99.90;;;;;;4914696;29;20546;-71
2021/12/08 00:35:29;;;;;;;;;;;7.00;99.90;;;;;;4917230;29;19918;-69
2021/12/08 00:37:56;;;;;;;;;;;7.00;99.90;;;;;;4914774;29;19911;-72
2021/12/08 00:40:22;;;;;;;;;;;6.90;99.90;;;;;;4914968;29;19918;-70
2021/12/08 00:42:48;;;;;;;;;;;6.90;99.90;;;;;;4909448;29;19919;-71
2021/12/08 00:45:14;;;;;;;;;;;6.90;99.90;;;;;;4913961;29;19919;-70
2021/12/08 00:47:40;;;;;;;;;;;6.90;99.90;;;;;;4912774;29;19911;-71
2021/12/08 00:50:07;;;;;;;;;;;6.80;99.90;;;;;;4909737;29;19926;-71
2021/12/08 00:52:32;;;;;;;;;;;6.80;99.90;;;;;;4907186;29;19939;-69
2021/12/08 00:54:59;;;;;;;;;;;6.80;99.90;;;;;;4910874;29;19957;-69
2021/12/08 00:57:25;;;;;;;;;;;6.80;99.90;;;;;;4905655;29;20399;-70
2021/12/08 00:59:50;;;;;;;;;;;6.90;99.90;;;;;;4907320;29;19911;-69
2021/12/08 01:02:16;;;;;;;;;;;7.00;99.90;;;;;;4903385;29;19919;-69
2021/12/08 01:04:41;;;;;;;;;;;7.00;99.90;;;;;;4910881;29;19998;-70
2021/12/08 01:07:07;;;;;;;;;;;7.00;99.90;;;;;;4912483;29;19926;-69
2021/12/08 01:09:36;;;;;;;;;;;6.90;99.90;;;;;;4913876;29;20597;-69
2021/12/08 01:12:02;;;;;;;;;;;6.90;99.90;;;;;;4911768;29;19927;-71
2021/12/08 01:14:29;;;;;;;;;;;6.90;99.90;;;;;;4909458;29;19953;-71
2021/12/08 01:16:54;;;;;;;;;;;6.90;99.90;;;;;;4909623;29;19914;-69
2021/12/08 01:19:20;;;;;;;;;;;6.70;99.90;;;;;;4908198;29;19918;-69
2021/12/08 01:21:45;;;;;;;;;;;6.70;99.90;;;;;;4907833;29;20358;-69
2021/12/08 01:24:11;;;;;;;;;;;6.70;99.90;;;;;;4910237;29;19924;-69
2021/12/08 01:26:37;;;;;;;;;;;6.70;99.90;;;;;;4909860;29;19911;-70
2021/12/08 01:29:03;;;;;;;;;;;6.70;99.90;;;;;;4914386;29;19911;-70
2021/12/08 01:31:29;;;;;;;;;;;6.70;99.90;;;;;;4905882;29;19998;-70
2021/12/08 01:33:54;;;;;;;;;;;6.70;99.90;;;;;;4913046;29;20326;-69
2021/12/08 01:36:20;;;;;;;;;;;6.60;99.90;;;;;;4913334;29;19911;-71
2021/12/08 01:38:46;;;;;;;;;;;6.60;99.90;;;;;;4907812;29;19991;-71
2021/12/08 01:41:11;;;;;;;;;;;6.50;99.90;;;;;;4909342;29;20672;-70
2021/12/08 01:43:41;;;;;;;;;;;6.50;99.90;;;;;;4920520;29;20232;-69
2021/12/08 01:46:08;;;;;;;;;;;6.60;99.90;;;;;;4908155;29;19942;-70
2021/12/08 01:48:35;;;;;;;;;;;6.60;99.90;;;;;;4908506;29;19962;-68
2021/12/08 01:51:03;;;;;;;;;;;6.70;99.90;;;;;;4916952;29;20293;-70
2021/12/08 01:53:30;;;;;;;;;;;6.60;99.90;;;;;;4912702;29;19917;-72
2021/12/08 01:55:55;;;;;;;;;;;6.50;99.90;;;;;;4915357;29;20003;-70
2021/12/08 01:58:21;;;;;;;;;;;6.30;99.90;;;;;;4911105;29;20001;-70
2021/12/08 02:00:47;;;;;;;;;;;6.20;99.90;;;;;;4912003;29;19915;-71
2021/12/08 02:03:13;;;;;;;;;;;6.30;99.90;;;;;;4908925;29;20358;-71
2021/12/08 02:05:39;;;;;;;;;;;6.30;99.90;;;;;;4921799;29;19917;-70
2021/12/08 02:08:05;;;;;;;;;;;6.30;99.90;;;;;;4913881;29;20002;-70
2021/12/08 02:10:31;;;;;;;;;;;6.30;99.90;;;;;;4913971;29;19954;-70
2021/12/08 02:12:57;;;;;;;;;;;6.40;99.90;;;;;;4912485;29;20001;-71
2021/12/08 02:15:22;;;;;;;;;;;6.50;99.90;;;;;;4911121;29;19933;-71
2021/12/08 02:17:50;;;;;;;;;;;6.50;99.90;;;;;;4910801;29;19982;-70
2021/12/08 02:20:17;;;;;;;;;;;6.50;99.90;;;;;;4912879;29;19934;-70
2021/12/08 02:22:43;;;;;;;;;;;6.50;99.90;;;;;;4902634;29;20389;-71
2021/12/08 02:25:10;;;;;;;;;;;6.50;99.90;;;;;;4905927;29;19911;-69
2021/12/08 02:27:35;;;;;;;;;;;6.50;99.90;;;;;;4907561;29;19918;-71
2021/12/08 02:30:14;;;;;;;;;;;6.50;99.90;;;;;;4911969;29;20017;-70
2021/12/08 02:49:03;;;;;;;;;;;6.80;99.90;;;;;;4910980;29;19958;-70
2021/12/08 02:51:28;;;;;;;;;;;6.80;99.90;;;;;;4907763;29;19914;-71
2021/12/08 02:53:54;;;;;;;;;;;6.80;99.90;;;;;;4909789;29;19915;-70
2021/12/08 02:56:19;;;;;;;;;;;6.90;99.90;;;;;;4912056;29;19911;-69
2021/12/08 02:58:46;;;;;;;;;;;6.90;99.90;;;;;;4907561;29;20428;-70
2021/12/08 03:01:12;;;;;;;;;;;6.90;99.90;;;;;;4911395;29;19939;-71
2021/12/08 03:03:38;;;;;;;;;;;6.90;99.90;;;;;;4911684;29;19915;-70
2021/12/08 03:06:05;;;;;;;;;;;6.90;99.90;;;;;;4909660;29;19918;-70
2021/12/08 03:08:31;;;;;;;;;;;6.90;99.90;;;;;;4910452;29;19911;-71
2021/12/08 03:10:56;;;;;;;;;;;6.90;99.90;;;;;;4909737;29;19922;-71
2021/12/08 03:13:37;;;;;;;;;;;6.80;99.90;;;;;;4908646;29;20380;-71
2021/12/08 03:16:03;;;;;;;;;;;6.90;99.90;;;;;;4908446;29;19973;-72
2021/12/08 03:18:34;;;;;;;;;;;6.70;99.90;;;;;;4910320;29;19911;-72
2021/12/08 03:21:00;;;;;;;;;;;6.50;99.90;;;;;;4909002;29;19911;-71
2021/12/08 03:23:33;;;;;;;;;;;6.30;99.90;;;;;;4910581;29;19911;-72
2021/12/08 03:26:01;;;;;;;;;;;6.20;99.90;;;;;;4912082;29;19934;-70
2021/12/08 03:28:31;;;;;;;;;;;6.20;99.90;;;;;;4908957;29;19911;-70
2021/12/08 03:33:25;;;;;;;;;;;6.00;99.90;;;;;;4911789;29;20365;-71
2021/12/08 03:35:51;;;;;;;;;;;5.90;99.90;;;;;;4912859;29;20164;-70
2021/12/08 03:38:18;;;;;;;;;;;6.00;99.90;;;;;;4909655;29;20277;-70
2021/12/08 03:40:44;;;;;;;;;;;6.00;99.90;;;;;;4905662;29;19911;-70
2021/12/08 03:43:10;;;;;;;;;;;6.00;99.90;;;;;;4910517;29;19925;-69
2021/12/08 03:45:37;;;;;;;;;;;6.10;99.90;;;;;;4911336;29;20045;-71
2021/12/08 03:48:04;;;;;;;;;;;6.10;99.90;;;;;;4912558;29;19970;-70
2021/12/08 03:50:32;;;;;;;;;;;6.20;99.90;;;;;;4910652;29;19926;-72
2021/12/08 03:52:58;;;;;;;;;;;6.20;99.90;;;;;;4908293;29;19918;-69
2021/12/08 03:55:23;;;;;;;;;;;6.30;99.90;;;;;;4912730;29;19911;-70
2021/12/08 03:57:49;;;;;;;;;;;6.30;99.90;;;;;;4910659;29;19923;-72
2021/12/08 04:00:19;;;;;;;;;;;6.40;99.90;;;;;;4906300;29;19911;-71
2021/12/08 04:02:45;;;;;;;;;;;6.40;99.90;;;;;;4908539;29;20364;-70
2021/12/08 04:05:12;;;;;;;;;;;6.40;99.90;;;;;;4914454;29;19911;-69
2021/12/08 04:07:43;;;;;;;;;;;6.40;99.90;;;;;;4915436;29;19962;-72
2021/12/08 04:10:16;;;;;;;;;;;6.40;99.90;;;;;;4915231;29;19923;-70
2021/12/08 04:12:42;;;;;;;;;;;6.40;99.90;;;;;;4914450;29;20557;-71
2021/12/08 04:15:08;;;;;;;;;;;6.40;99.90;;;;;;4910012;29;20366;-70
2021/12/08 04:17:36;;;;;;;;;;;6.40;99.90;;;;;;4910964;29;19912;-70
2021/12/08 04:20:05;;;;;;;;;;;6.40;99.90;;;;;;4904340;29;19918;-70
2021/12/08 04:22:32;;;;;;;;;;;6.40;99.90;;;;;;4913374;29;19917;-70
2021/12/08 04:24:59;;;;;;;;;;;6.40;99.90;;;;;;4914569;29;19945;-72
2021/12/08 04:27:27;;;;;;;;;;;6.40;99.90;;;;;;4915794;29;19943;-71
2021/12/08 04:29:53;;;;;;;;;;;6.50;99.90;;;;;;4913744;29;19927;-70
2021/12/08 04:32:19;;;;;;;;;;;6.50;99.90;;;;;;4908145;29;19923;-69
2021/12/08 04:34:48;;;;;;;;;;;6.50;99.90;;;;;;4902916;29;19919;-70
2021/12/08 04:37:20;;;;;;;;;;;6.50;99.90;;;;;;4915467;29;19962;-71
2021/12/08 04:42:22;;;;;;;;;;;6.60;99.90;;;;;;4917095;29;20041;-69
2021/12/08 04:44:57;;;;;;;;;;;6.70;99.90;;;;;;4912949;29;19974;-69
2021/12/08 04:47:47;;;;;;;;;;;6.70;99.90;;;;;;4913974;29;20338;-70
2021/12/08 04:50:44;;;;;;;;;;;6.80;99.90;;;;;;4907213;29;19923;-69
2021/12/08 05:01:27;;;;;;;;;;;7.00;99.90;;;;;;4910033;29;20270;-70
2021/12/08 05:09:01;;;;;;;;;;;6.80;99.90;;;;;;4912560;29;20133;-69
2021/12/08 05:11:29;;;;;;;;;;;6.90;99.90;;;;;;4922304;29;19925;-69
2021/12/08 05:14:00;;;;;;;;;;;7.00;99.90;;;;;;4909487;29;20360;-70
2021/12/08 05:16:26;;;;;;;;;;;7.00;99.90;;;;;;4907756;29;19941;-70
2021/12/08 05:18:53;;;;;;;;;;;7.10;99.90;;;;;;4909137;29;19911;-70
2021/12/08 05:21:31;;;;;;;;;;;7.10;99.90;;;;;;4916538;29;20361;-70
2021/12/08 05:24:07;;;;;;;;;;;7.10;99.90;;;;;;4911191;29;20353;-69
2021/12/08 05:26:41;;;;;;;;;;;7.10;99.90;;;;;;4909408;29;19923;-70
2021/12/08 05:29:17;;;;;;;;;;;7.10;99.90;;;;;;4906180;29;20002;-72
2021/12/08 05:31:43;;;;;;;;;;;7.10;99.90;;;;;;4908246;29;19920;-70
2021/12/08 05:34:08;;;;;;;;;;;7.10;99.90;;;;;;4907047;29;20338;-70
2021/12/08 05:36:34;;;;;;;;;;;7.20;99.90;;;;;;4916809;29;19929;-69
2021/12/08 05:39:01;;;;;;;;;;;7.20;99.90;;;;;;4913285;29;19911;-69
2021/12/08 05:41:29;;;;;;;;;;;7.10;99.90;;;;;;4911994;29;19942;-69
2021/12/08 05:43:55;;;;;;;;;;;7.20;99.90;;;;;;4910292;29;19920;-71
2021/12/08 05:46:21;;;;;;;;;;;7.20;99.90;;;;;;4913252;29;20318;-68
2021/12/08 05:48:48;;;;;;;;;;;7.20;99.90;;;;;;4904915;29;19990;-71
2021/12/08 05:51:16;;;;;;;;;;;7.10;99.90;;;;;;4906164;29;19915;-69
2021/12/08 05:53:47;;;;;;;;;;;7.10;99.90;;;;;;4908145;29;19985;-70
2021/12/08 05:56:14;;;;;;;;;;;7.20;99.90;;;;;;4915504;29;19966;-69
2021/12/08 05:58:40;;;;;;;;;;;7.20;99.90;;;;;;4912776;29;19907;-70
2021/12/08 06:01:32;;;;;;;;;;;7.20;99.90;;;;;;4913130;29;19918;-69
2021/12/08 06:03:57;;;;;;;;;;;7.30;99.90;;;;;;4910652;29;19911;-69
2021/12/08 06:06:24;;;;;;;;;;;7.40;99.90;;;;;;4913279;29;20024;-69
2021/12/08 06:08:51;;;;;;;;;;;7.40;99.90;;;;;;4907214;29;19914;-70
2021/12/08 06:11:17;;;;;;;;;;;7.40;99.90;;;;;;4910714;29;19984;-71
2021/12/08 06:13:43;;;;;;;;;;;7.30;99.90;;;;;;4914459;29;19945;-71
2021/12/08 06:16:11;;;;;;;;;;;7.30;99.90;;;;;;4910758;29;20257;-68
2021/12/08 06:18:39;;;;;;;;;;;7.30;99.90;;;;;;4912847;29;20379;-69
2021/12/08 06:21:08;;;;;;;;;;;7.30;99.90;;;;;;4913748;29;19930;-68
2021/12/08 06:23:35;;;;;;;;;;;7.30;99.90;;;;;;4908008;29;19918;-69
2021/12/08 06:26:00;;;;;;;;;;;7.30;99.90;;;;;;4910112;29;20014;-68
2021/12/08 06:28:26;;;;;;;;;;;7.40;99.90;;;;;;4902213;29;20010;-69
2021/12/08 06:30:52;;;;;;;;;;;7.40;99.90;;;;;;4913646;29;19998;-70
2021/12/08 06:33:20;;;;;;;;;;;7.40;99.90;;;;;;4908523;29;19918;-70
2021/12/08 06:35:51;;;;;;;;;;;7.50;99.90;;;;;;4910616;29;19911;-69
2021/12/08 06:38:17;;;;;;;;;;;7.50;99.90;;;;;;4909984;29;20059;-70
2021/12/08 06:40:46;;;;;;;;;;;7.50;99.90;;;;;;4909019;29;19911;-70
2021/12/08 06:43:13;;;;;;;;;;;7.60;99.90;;;;;;4911145;29;19962;-69
2021/12/08 06:45:44;;;;;;;;;;;7.60;99.90;;;;;;4914445;29;19934;-71
2021/12/08 06:48:12;;;;;;;;;;;7.60;99.90;;;;;;4913488;29;20062;-69
2021/12/08 06:50:41;;;;;;;;;;;7.50;99.90;;;;;;4908231;29;19923;-69
2021/12/08 06:53:06;;;;;;;;;;;7.60;99.90;;;;;;4907387;29;19915;-71
2021/12/08 06:55:37;;;;;;;;;;;7.60;99.90;;;;;;4910622;29;19963;-69
2021/12/08 06:58:04;;;;;;;;;;;7.60;99.90;;;;;;4902897;29;19919;-69
2021/12/08 07:03:52;;;;;;;;;;;7.70;99.90;;;;;;4908595;29;20005;-69
2021/12/08 07:06:40;;;;;;;;;;;7.80;99.90;;;;;;4908414;29;20315;-70
2021/12/08 07:09:05;;;;;;;;;;;7.80;99.90;;;;;;4911176;29;19911;-69
2021/12/08 07:11:31;;;;;;;;;;;7.90;99.90;;;;;;4903182;29;20619;-70
2021/12/08 07:13:57;;;;;;;;;;;8.00;99.90;;;;;;4909737;29;19938;-71
2021/12/08 07:16:25;;;;;;;;;;;8.00;99.90;;;;;;4912190;29;19918;-70
2021/12/08 07:18:56;;;;;;;;;;;8.00;99.90;;;;;;4905738;29;20253;-70
2021/12/08 07:21:24;;;;;;;;;;;8.00;99.90;;;;;;4905019;29;20250;-71
2021/12/08 07:23:52;;;;;;;;;;;8.00;99.90;;;;;;4899863;29;19911;-71
2021/12/08 07:26:23;;;;;;;;;;;8.00;99.90;;;;;;4901134;29;19974;-71
2021/12/08 07:28:51;;;;;;;;;;;8.10;99.90;;;;;;4909668;29;19990;-72
2021/12/08 07:31:22;;;;;;;;;;;8.00;99.90;;;;;;4905007;29;19919;-71
2021/12/08 07:33:48;;;;;;;;;;;8.00;99.90;;;;;;4902074;29;19958;-71
2021/12/08 07:36:16;;;;;;;;;;;8.00;99.90;;;;;;4903741;29;19942;-72
2021/12/08 07:38:42;;;;;;;;;;;7.70;99.90;;;;;;4909247;29;19918;-71
2021/12/08 07:41:15;;;;;;;;;;;7.30;99.90;;;;;;4915929;29;19946;-70
2021/12/08 07:43:42;;;;;;;;;;;7.20;99.90;;;;;;4913084;29;19939;-71
2021/12/08 07:46:14;;;;;;;;;;;7.10;99.90;;;;;;4912412;29;19961;-70
2021/12/08 07:48:43;;;;;;;;;;;7.20;99.90;;;;;;4917830;29;19917;-71
2021/12/08 07:51:11;;;;;;;;;;;7.30;99.90;;;;;;4910851;29;19919;-70
2021/12/08 07:53:36;;;;;;;;;;;7.30;99.90;;;;;;4912866;29;19926;-71
2021/12/08 07:56:04;;;;;;;;;;;7.30;99.90;;;;;;4910275;29;19919;-71
2021/12/08 07:58:32;;;;;;;;;;;7.30;99.90;;;;;;4909962;29;19923;-70
2021/12/08 08:00:59;;;;;;;;;;;7.40;99.90;;;;;;4914916;29;20377;-70
2021/12/08 08:03:26;;;;;;;;;;;7.50;99.90;;;;;;4917015;29;19958;-71
2021/12/08 08:05:53;;;;;;;;;;;7.60;99.90;;;;;;4914754;29;20353;-71
2021/12/08 08:08:20;;;;;;;;;;;7.50;99.90;;;;;;4915208;29;19911;-71
2021/12/08 08:10:50;;;;;;;;;;;7.40;99.90;;;;;;4921975;29;20381;-72
2021/12/08 08:13:18;;;;;;;;;;;7.50;99.90;;;;;;4915774;29;19954;-70
2021/12/08 08:15:46;;;;;;;;;;;7.60;99.90;;;;;;4913634;29;19911;-71
2021/12/08 08:18:14;;;;;;;;;;;7.70;99.90;;;;;;4919322;29;20032;-71
2021/12/08 08:20:42;;;;;;;;;;;7.70;99.90;;;;;;4913784;29;19911;-71
2021/12/08 08:23:08;;;;;;;;;;;7.70;99.90;;;;;;4917213;29;19915;-73
2021/12/08 08:25:40;;;;;;;;;;;7.80;99.90;;;;;;4914816;29;19922;-73
2021/12/08 08:28:06;;;;;;;;;;;7.80;99.90;;;;;;4912738;29;20013;-71
2021/12/08 08:30:34;;;;;;;;;;;7.80;99.90;;;;;;4917053;29;20089;-71
2021/12/08 08:32:59;;;;;;;;;;;7.90;99.90;;;;;;4913946;29;19958;-72
2021/12/08 08:35:36;;;;;;;;;;;7.90;99.90;;;;;;4918649;29;19961;-72
2021/12/08 08:38:05;;;;;;;;;;;7.90;99.90;;;;;;4913798;29;19921;-71
2021/12/08 08:40:39;;;;;;;;;;;7.90;99.90;;;;;;4923136;29;19911;-72
2021/12/08 08:43:06;;;;;;;;;;;7.90;99.90;;;;;;4919055;29;19911;-72
2021/12/08 08:45:39;;;;;;;;;;;7.90;99.90;;;;;;4921172;29;19911;-70
2021/12/08 08:48:25;;;;;;;;;;;7.90;99.90;;;;;;4919720;29;19910;-71
2021/12/08 08:50:54;;;;;;;;;;;8.00;99.90;;;;;;4905876;29;19973;-71
2021/12/08 08:53:20;;;;;;;;;;;8.00;99.90;;;;;;4912970;29;20447;-72
2021/12/08 08:55:49;;;;;;;;;;;8.10;99.90;;;;;;4915871;29;19911;-71
2021/12/08 08:58:15;;;;;;;;;;;8.10;99.90;;;;;;4915173;29;20293;-70
2021/12/08 09:00:43;;;;;;;;;;;8.00;99.90;;;;;;4912455;29;19915;-70
2021/12/08 09:03:14;;;;;;;;;;;8.00;99.90;;;;;;4916515;29;20009;-70
2021/12/08 09:05:43;;;;;;;;;;;8.10;99.90;;;;;;4914729;29;19914;-71
2021/12/08 09:08:09;;;;;;;;;;;8.10;99.90;;;;;;4913751;29;19915;-72
2021/12/08 09:10:48;;;;;;;;;;;8.10;99.90;;;;;;4912115;29;19919;-71
2021/12/08 09:13:19;;;;;;;;;;;8.20;99.90;;;;;;4901101;29;19911;-70
2021/12/08 09:15:51;;;;;;;;;;;8.10;99.90;;;;;;4916758;29;19910;-72
2021/12/08 09:18:18;;;;;;;;;;;8.10;99.90;;;;;;4910493;29;20243;-70
2021/12/08 09:20:59;;;;;;;;;;;8.20;99.90;;;;;;4911054;29;19998;-70
2021/12/08 09:23:31;;;;;;;;;;;8.20;99.90;;;;;;4906945;29;20354;-70
2021/12/08 09:26:00;;;;;;;;;;;8.20;99.90;;;;;;4906738;29;19911;-70
2021/12/08 09:28:29;;;;;;;;;;;8.20;99.90;;;;;;4906879;29;19911;-69
2021/12/08 09:31:02;;;;;;;;;;;8.20;99.90;;;;;;4884565;29;19919;-71
2021/12/08 09:33:37;;;;;;;;;;;8.20;99.90;;;;;;4912987;29;19994;-71
2021/12/08 09:36:06;;;;;;;;;;;8.30;99.90;;;;;;4914480;29;19911;-70
2021/12/08 09:38:40;;;;;;;;;;;8.20;99.90;;;;;;4912767;29;19934;-71
2021/12/08 09:41:08;;;;;;;;;;;8.20;99.90;;;;;;4913445;29;19915;-71
2021/12/08 09:43:36;;;;;;;;;;;8.20;99.90;;;;;;4919160;29;20329;-70
2021/12/08 09:46:22;;;;;;;;;;;8.10;99.90;;;;;;4915327;29;19915;-71
2021/12/08 09:48:49;;;;;;;;;;;8.10;99.90;;;;;;4907069;29;20005;-69
2021/12/08 09:51:23;;;;;;;;;;;8.20;99.90;;;;;;4913576;29;19966;-69
2021/12/08 09:53:49;;;;;;;;;;;8.20;99.90;;;;;;4912798;29;19911;-69
2021/12/08 09:56:16;;;;;;;;;;;8.20;99.90;;;;;;4915907;29;19911;-70
2021/12/08 09:58:42;;;;;;;;;;;8.20;99.90;;;;;;4914606;29;19918;-71
2021/12/08 10:01:12;;;;;;;;;;;8.30;99.90;;;;;;4914600;29;19971;-71
2021/12/08 10:03:38;;;;;;;;;;;8.30;99.90;;;;;;4916965;29;19911;-70
2021/12/08 10:06:04;;;;;;;;;;;8.30;99.90;;;;;;4912408;29;19918;-71
2021/12/08 10:08:30;;;;;;;;;;;8.30;99.90;;;;;;4915724;29;20013;-69
2021/12/08 10:10:56;;;;;;;;;;;8.30;99.90;;;;;;4908965;29;20381;-70
2021/12/08 10:13:22;;;;;;;;;;;8.40;99.90;;;;;;4914928;29;19942;-70
2021/12/08 10:15:48;;;;;;;;;;;8.40;99.90;;;;;;4915294;29;19962;-70
2021/12/08 10:18:14;;;;;;;;;;;8.40;99.90;;;;;;4912669;29;19919;-71
2021/12/08 10:20:39;;;;;;;;;;;8.40;99.90;;;;;;4913555;29;19993;-70
2021/12/08 10:23:11;;;;;;;;;;;8.40;99.90;;;;;;4916458;29;20002;-71
2021/12/08 10:25:42;;;;;;;;;;;8.40;99.90;;;;;;4909988;29;19915;-71
2021/12/08 10:28:07;;;;;;;;;;;8.40;99.90;;;;;;4915215;29;19950;-71
2021/12/08 10:30:37;;;;;;;;;;;8.40;99.90;;;;;;4908775;29;19963;-71
2021/12/08 10:33:10;;;;;;;;;;;8.40;99.90;;;;;;4901256;29;19915;-71
2021/12/08 10:36:02;;;;;;;;;;;8.40;99.90;;;;;;4916401;29;19911;-71
2021/12/08 10:38:35;;;;;;;;;;;8.40;99.90;;;;;;4911262;29;19911;-71
2021/12/08 10:41:03;;;;;;;;;;;8.40;99.90;;;;;;4906353;29;19911;-70
2021/12/08 10:43:28;;;;;;;;;;;8.30;99.90;;;;;;4912156;29;20009;-71
2021/12/08 10:46:00;;;;;;;;;;;8.30;99.90;;;;;;4916837;29;20023;-70
2021/12/08 10:48:33;;;;;;;;;;;8.40;99.90;;;;;;4916742;29;20005;-71
2021/12/08 10:56:42;;;;;;;;;;;8.30;99.90;;;;;;4884733;29;19911;-71
2021/12/08 10:59:07;;;;;;;;;;;8.30;99.90;;;;;;4900439;29;20002;-71
2021/12/08 11:01:34;;;;;;;;;;;8.30;99.90;;;;;;4902698;29;20061;-70
2021/12/08 11:03:59;;;;;;;;;;;8.40;99.90;;;;;;4901354;29;20348;-71
2021/12/08 11:06:28;;;;;;;;;;;8.30;99.90;;;;;;4912202;29;19959;-71
2021/12/08 11:08:56;;;;;;;;;;;8.30;99.90;;;;;;4914028;29;19917;-71
2021/12/08 11:11:24;;;;;;;;;;;8.30;99.90;;;;;;4925109;29;20426;-70
2021/12/08 11:13:54;;;;;;;;;;;8.40;99.90;;;;;;4909892;29;19946;-71
2021/12/08 11:16:27;;;;;;;;;;;8.40;99.90;;;;;;4911445;29;19915;-71
2021/12/08 11:19:04;;;;;;;;;;;8.40;99.90;;;;;;4908491;29;19911;-71
2021/12/08 11:21:36;;;;;;;;;;;8.40;99.90;;;;;;4908229;29;19918;-71
2021/12/08 11:24:05;;;;;;;;;;;8.40;99.90;;;;;;4905358;29;19919;-70
2021/12/08 11:26:41;;;;;;;;;;;8.40;99.90;;;;;;4917934;29;19910;-70
2021/12/08 11:29:06;;;;;;;;;;;8.50;99.90;;;;;;4910748;29;20084;-72
2021/12/08 11:31:38;;;;;;;;;;;8.40;99.90;;;;;;4901426;29;20181;-70
2021/12/08 11:34:06;;;;;;;;;;;8.50;99.90;;;;;;4914615;29;20318;-71
2021/12/08 11:36:33;;;;;;;;;;;8.50;99.90;;;;;;4913736;29;19950;-72
2021/12/08 11:39:05;;;;;;;;;;;8.40;99.90;;;;;;4913513;29;19926;-71
2021/12/08 11:41:39;;;;;;;;;;;8.40;99.90;;;;;;4922484;29;19947;-71
2021/12/08 11:44:25;;;;;;;;;;;8.50;99.90;;;;;;4910089;29;19966;-71
2021/12/08 11:46:52;;;;;;;;;;;8.40;99.90;;;;;;4907656;29;20251;-71
2021/12/08 11:49:18;;;;;;;;;;;8.40;99.90;;;;;;4915034;29;19908;-71
2021/12/08 11:51:44;;;;;;;;;;;8.40;99.90;;;;;;4907200;29;19990;-69
2021/12/08 11:54:28;;;;;;;;;;;8.40;99.90;;;;;;4909921;29;19922;-71
2021/12/08 11:57:10;;;;;;;;;;;8.40;99.90;;;;;;4908425;29;19907;-71
2021/12/08 11:59:44;;;;;;;;;;;8.40;99.90;;;;;;4913208;29;19939;-71
2021/12/08 12:02:13;;;;;;;;;;;8.30;99.90;;;;;;4907881;29;19986;-72
2021/12/08 12:04:38;;;;;;;;;;;8.30;99.90;;;;;;4913149;29;20313;-71
2021/12/08 12:07:04;;;;;;;;;;;8.30;99.90;;;;;;4903369;29;20006;-72
2021/12/08 12:09:29;;;;;;;;;;;8.30;99.90;;;;;;4906941;29;19965;-73
2021/12/08 12:11:57;;;;;;;;;;;8.30;99.90;;;;;;4904637;29;19919;-72
2021/12/08 12:14:23;;;;;;;;;;;8.30;99.90;;;;;;4913232;29;19919;-72
2021/12/08 12:16:48;;;;;;;;;;;8.20;99.90;;;;;;4913281;29;19915;-71
2021/12/08 12:19:17;;;;;;;;;;;8.10;99.90;;;;;;4909118;29;19919;-72
2021/12/08 12:21:45;;;;;;;;;;;8.10;99.90;;;;;;4905843;29;19958;-72
2021/12/08 12:24:13;;;;;;;;;;;8.10;99.90;;;;;;4910094;29;19996;-73
2021/12/08 12:26:53;;;;;;;;;;;8.10;99.90;;;;;;4912256;29;19915;-72
2021/12/08 12:29:35;;;;;;;;;;;8.10;99.90;;;;;;4913492;29;19966;-72
2021/12/08 12:32:20;;;;;;;;;;;8.10;99.90;;;;;;4909180;29;19953;-71
2021/12/08 12:34:45;;;;;;;;;;;8.00;99.90;;;;;;4915431;29;19907;-71
2021/12/08 12:37:18;;;;;;;;;;;8.10;99.90;;;;;;4918234;29;19915;-72
2021/12/08 12:39:47;;;;;;;;;;;8.00;99.90;;;;;;4914960;29;19926;-70
2021/12/08 12:42:15;;;;;;;;;;;8.00;99.90;;;;;;4916156;29;19958;-71
2021/12/08 12:44:42;;;;;;;;;;;8.00;99.90;;;;;;4914420;29;19907;-70
2021/12/08 12:47:26;;;;;;;;;;;8.00;99.90;;;;;;4917674;29;19919;-72
2021/12/08 12:50:04;;;;;;;;;;;8.00;99.90;;;;;;4911432;29;19915;-71
2021/12/08 12:52:34;;;;;;;;;;;8.10;99.90;;;;;;4915374;29;20262;-71
2021/12/08 12:55:06;;;;;;;;;;;8.00;99.90;;;;;;4912828;29;19942;-69
2021/12/08 12:57:32;;;;;;;;;;;8.10;99.90;;;;;;4910936;29;20354;-73
2021/12/08 12:59:57;;;;;;;;;;;8.10;99.90;;;;;;4908008;29;19918;-71
2021/12/08 13:02:31;;;;;;;;;;;8.10;99.90;;;;;;4913375;29;19913;-70
2021/12/08 13:04:58;;;;;;;;;;;8.10;99.90;;;;;;4914339;29;20376;-70
2021/12/08 13:07:28;;;;;;;;;;;8.20;99.90;;;;;;4916439;29;19990;-73
2021/12/08 13:10:06;;;;;;;;;;;8.30;99.90;;;;;;4917036;29;19911;-71
2021/12/08 13:12:34;;;;;;;;;;;8.30;99.90;;;;;;4917399;29;19919;-69
2021/12/08 13:15:13;;;;;;;;;;;8.30;99.90;;;;;;4911723;29;20281;-72
2021/12/08 13:17:58;;;;;;;;;;;8.40;99.90;;;;;;4907969;29;20377;-71
2021/12/08 13:20:24;;;;;;;;;;;8.40;99.90;;;;;;4916589;29;19911;-72
2021/12/08 13:22:55;;;;;;;;;;;8.40;99.90;;;;;;4906568;29;19914;-72
2021/12/08 13:25:28;;;;;;;;;;;8.40;99.90;;;;;;4907236;29;19918;-70
2021/12/08 13:27:55;;;;;;;;;;;8.30;99.90;;;;;;4911606;29;20325;-69
2021/12/08 13:30:21;;;;;;;;;;;8.40;99.90;;;;;;4911886;29;19942;-72
2021/12/08 13:32:47;;;;;;;;;;;8.40;99.90;;;;;;4909516;29;20382;-69
2021/12/08 13:35:30;;;;;;;;;;;8.40;99.90;;;;;;4911162;29;19958;-70
2021/12/08 13:37:56;;;;;;;;;;;8.40;99.90;;;;;;4907922;29;20423;-70
2021/12/08 13:40:38;;;;;;;;;;;8.40;99.90;;;;;;4914927;29;20017;-71
2021/12/08 13:43:05;;;;;;;;;;;8.40;99.90;;;;;;4920220;29;20420;-71
2021/12/08 13:45:40;;;;;;;;;;;8.40;99.90;;;;;;4911683;29;19915;-71
2021/12/08 13:48:05;;;;;;;;;;;8.40;99.90;;;;;;4916772;29;19923;-72
2021/12/08 13:50:33;;;;;;;;;;;8.40;99.90;;;;;;4914621;29;19965;-72
2021/12/08 13:53:06;;;;;;;;;;;8.40;99.90;;;;;;4915964;29;19938;-70
2021/12/08 13:55:32;;;;;;;;;;;8.40;99.90;;;;;;4904113;29;19911;-70
2021/12/08 13:58:07;;;;;;;;;;;8.50;99.90;;;;;;4914056;29;19911;-71
2021/12/08 14:00:35;;;;;;;;;;;8.40;99.90;;;;;;4913132;29;19970;-70
2021/12/08 14:03:00;;;;;;;;;;;8.40;99.90;;;;;;4914189;29;20285;-71
2021/12/08 14:05:34;;;;;;;;;;;8.50;99.90;;;;;;4913574;29;19918;-71
2021/12/08 14:08:18;;;;;;;;;;;8.50;99.90;;;;;;4915593;29;20317;-70
2021/12/08 14:10:46;;;;;;;;;;;8.50;99.90;;;;;;4905053;29;20394;-71
2021/12/08 14:13:14;;;;;;;;;;;8.50;99.90;;;;;;4911917;29;19921;-71
2021/12/08 14:15:39;;;;;;;;;;;8.50;99.90;;;;;;4914509;29;20709;-71
2021/12/08 14:18:13;;;;;;;;;;;8.50;99.90;;;;;;4912826;29;20277;-71
2021/12/08 14:20:39;;;;;;;;;;;8.60;99.90;;;;;;4903891;29;20246;-70
2021/12/08 14:23:04;;;;;;;;;;;8.60;99.90;;;;;;4912513;29;19911;-70
2021/12/08 14:25:34;;;;;;;;;;;8.50;99.90;;;;;;4915343;29;19926;-70
2021/12/08 14:28:00;;;;;;;;;;;8.60;99.90;;;;;;4911700;29;19997;-70
2021/12/08 14:30:25;;;;;;;;;;;8.60;99.90;;;;;;4915425;29;20002;-70
2021/12/08 14:33:03;;;;;;;;;;;8.50;99.90;;;;;;4908569;29;19919;-70
2021/12/08 14:35:29;;;;;;;;;;;8.50;99.90;;;;;;4910679;29;20301;-70
2021/12/08 14:38:04;;;;;;;;;;;8.40;99.90;;;;;;4910649;29;19922;-70
2021/12/08 14:40:29;;;;;;;;;;;8.40;99.90;;;;;;4910369;29;19911;-71
2021/12/08 14:42:55;;;;;;;;;;;8.40;99.90;;;;;;4921588;29;19967;-71
2021/12/08 14:45:26;;;;;;;;;;;8.40;99.90;;;;;;4911467;29;19915;-70
2021/12/08 14:47:52;;;;;;;;;;;8.40;99.90;;;;;;4915629;29;19917;-70
2021/12/08 14:50:23;;;;;;;;;;;8.40;99.90;;;;;;4913914;29;19907;-70
2021/12/08 14:52:50;;;;;;;;;;;8.30;99.90;;;;;;4909029;29;19918;-71
2021/12/08 14:55:21;;;;;;;;;;;8.30;99.90;;;;;;4909991;29;19938;-69
2021/12/08 14:57:51;;;;;;;;;;;8.30;99.90;;;;;;4915507;29;20417;-70
2021/12/08 15:00:17;;;;;;;;;;;8.20;99.90;;;;;;4911774;29;20393;-71
2021/12/08 15:02:45;;;;;;;;;;;8.30;99.90;;;;;;4913689;29;19947;-71
2021/12/08 15:05:19;;;;;;;;;;;8.20;99.90;;;;;;4910542;29;19907;-71
2021/12/08 15:07:45;;;;;;;;;;;8.20;99.90;;;;;;4915304;29;19911;-71
2021/12/08 15:10:12;;;;;;;;;;;8.20;99.90;;;;;;4905816;29;19959;-70
2021/12/08 15:12:39;;;;;;;;;;;8.20;99.90;;;;;;4911646;29;19928;-71
2021/12/08 15:15:14;;;;;;;;;;;8.10;99.90;;;;;;4911597;29;20254;-70
2021/12/08 15:17:39;;;;;;;;;;;8.10;99.90;;;;;;4913142;29;19918;-70
2021/12/08 15:20:05;;;;;;;;;;;8.10;99.90;;;;;;4912783;29;19907;-71
2021/12/08 15:22:38;;;;;;;;;;;8.10;99.90;;;;;;4908078;29;19912;-71
2021/12/08 15:25:07;;;;;;;;;;;8.00;99.90;;;;;;4911832;29;19911;-70
2021/12/08 15:27:38;;;;;;;;;;;8.00;99.90;;;;;;4914043;29;19907;-70